Time;durP1;ratioP1;P1;durP2;ratioP2;P2;SDS_P1;SDS_P2;PMS_P1;PMS_P2;Temp;Humidity;BMP_temperature;BMP_pressure;BME280_temperature;BME280_humidity;BME280_pressure;Samples;Min_cycle;Max_cycle;Signal;HPM_P1;HPM_P2
2021/08/29 00:02:56;;;;;;;17.77;9.98;;;;;;;13.76;100.00;99643.03;6285360;28;20046;-79
2021/08/29 00:05:57;;;;;;;13.25;10.10;;;;;;;13.72;100.00;99645.06;6302103;28;20115;-79
2021/08/29 00:08:58;;;;;;;15.05;10.55;;;;;;;13.74;100.00;99642.34;6302052;28;20044;-79
2021/08/29 00:11:58;;;;;;;13.05;10.60;;;;;;;13.74;100.00;99634.47;6302125;28;20043;-80
2021/08/29 00:14:59;;;;;;;13.25;10.35;;;;;;;13.73;100.00;99617.88;6323539;28;20044;-79
2021/08/29 00:18:00;;;;;;;14.32;10.18;;;;;;;13.73;100.00;99619.69;6307285;28;20422;-79
2021/08/29 00:21:01;;;;;;;13.20;10.57;;;;;;;13.74;100.00;99611.69;6325104;28;20040;-79
2021/08/29 00:24:01;;;;;;;14.90;11.07;;;;;;;13.71;100.00;99604.06;6307056;28;20040;-79
2021/08/29 00:27:02;;;;;;;13.07;10.50;;;;;;;13.78;100.00;99607.03;6323869;28;20104;-80
2021/08/29 00:30:04;;;;;;;13.57;10.77;;;;;;;13.81;100.00;99599.75;6306754;28;20063;-80
2021/08/29 00:33:05;;;;;;;16.90;10.82;;;;;;;13.78;100.00;99596.56;6312139;28;20123;-79
2021/08/29 00:36:05;;;;;;;13.20;10.48;;;;;;;13.81;100.00;99597.13;6281900;28;20071;-79
2021/08/29 00:39:06;;;;;;;13.63;10.48;;;;;;;13.78;100.00;99586.91;6321874;28;20056;-79
2021/08/29 00:42:08;;;;;;;13.95;10.57;;;;;;;13.76;100.00;99591.44;6306732;28;20410;-80
2021/08/29 00:45:09;;;;;;;12.85;10.35;;;;;;;13.74;100.00;99592.53;6289869;28;20039;-80
2021/08/29 00:48:10;;;;;;;14.70;10.30;;;;;;;13.73;100.00;99588.22;6324640;28;20124;-79
2021/08/29 00:51:14;;;;;;;12.32;9.77;;;;;;;13.73;100.00;99583.81;6306407;28;20064;-80
2021/08/29 00:54:15;;;;;;;12.57;10.43;;;;;;;13.68;100.00;99578.94;6306312;28;20040;-80
2021/08/29 00:57:16;;;;;;;12.02;9.70;;;;;;;13.65;100.00;99581.81;6298118;28;20403;-79
2021/08/29 01:00:17;;;;;;;13.60;10.10;;;;;;;13.55;100.00;99590.53;6248528;28;20441;-80
2021/08/29 01:03:21;;;;;;;13.13;10.70;;;;;;;13.49;100.00;99584.03;6264657;28;20446;-79
2021/08/29 01:06:33;;;;;;;13.55;10.15;;;;;;;13.44;100.00;99584.38;6281101;28;20837;-79
2021/08/29 01:09:37;;;;;;;13.70;10.50;;;;;;;13.42;100.00;99585.44;6281201;28;20501;-79
2021/08/29 01:12:44;;;;;;;12.82;10.65;;;;;;;13.39;100.00;99596.19;6280959;28;20260;-79
2021/08/29 01:15:47;;;;;;;12.82;10.10;;;;;;;13.33;100.00;99591.44;6281142;28;20040;-79
2021/08/29 01:18:52;;;;;;;13.07;9.80;;;;;;;13.36;100.00;99585.94;6320615;28;20042;-80
2021/08/29 01:21:54;;;;;;;14.85;9.95;;;;;;;13.42;100.00;99583.66;6298183;28;20045;-79
2021/08/29 01:24:55;;;;;;;12.95;10.25;;;;;;;13.38;100.00;99581.41;6279400;28;20403;-79
2021/08/29 01:28:06;;;;;;;16.13;10.77;;;;;;;13.36;100.00;99583.31;6298537;28;20040;-79
2021/08/29 01:31:07;;;;;;;15.55;10.38;;;;;;;13.37;100.00;99574.53;6298395;28;20040;-79
2021/08/29 01:34:12;;;;;;;13.60;10.20;;;;;;;13.33;100.00;99586.22;6280728;28;20074;-79
2021/08/29 01:37:16;;;;;;;14.68;11.15;;;;;;;13.25;100.00;99581.53;6298565;28;20381;-79
2021/08/29 01:40:17;;;;;;;12.45;10.45;;;;;;;13.30;100.00;99589.88;6298057;28;20047;-79
2021/08/29 01:43:18;;;;;;;16.65;10.60;;;;;;;13.25;100.00;99590.22;6296877;28;20041;-79
2021/08/29 01:46:19;;;;;;;12.75;10.02;;;;;;;13.28;100.00;99578.66;6280218;28;20471;-80
2021/08/29 01:49:22;;;;;;;12.88;9.52;;;;;;;13.22;100.00;99574.75;6280609;28;20049;-80
2021/08/29 01:52:22;;;;;;;12.45;10.13;;;;;;;13.24;100.00;99577.25;6263951;28;20040;-79
2021/08/29 01:55:26;;;;;;;12.73;9.98;;;;;;;13.17;100.00;99565.59;6280442;28;20067;-79
2021/08/29 01:58:27;;;;;;;13.40;9.85;;;;;;;13.15;100.00;99578.81;6299928;28;20552;-79
2021/08/29 02:01:27;;;;;;;15.80;10.35;;;;;;;13.23;100.00;99580.81;6271513;28;20076;-79
2021/08/29 02:04:29;;;;;;;12.38;10.35;;;;;;;13.24;100.00;99577.25;6288250;28;20036;-80
2021/08/29 02:07:34;;;;;;;15.07;10.80;;;;;;;13.22;100.00;99585.25;6288035;28;20032;-83
2021/08/29 02:10:36;;;;;;;13.93;9.98;;;;;;;13.22;100.00;99587.00;6322518;28;20050;-83
2021/08/29 02:13:40;;;;;;;12.00;9.60;;;;;;;13.21;100.00;99580.94;6304823;28;20550;-83
2021/08/29 02:16:43;;;;;;;15.18;9.73;;;;;;;13.32;100.00;99584.53;6322616;28;20521;-83
2021/08/29 02:19:46;;;;;;;12.63;9.77;;;;;;;13.36;100.00;99573.66;6271462;28;20036;-83
2021/08/29 02:22:48;;;;;;;14.50;9.30;;;;;;;13.34;100.00;99580.00;6322437;28;20036;-83
2021/08/29 02:25:50;;;;;;;11.85;9.63;;;;;;;13.34;100.00;99580.00;6288105;28;20075;-83
2021/08/29 02:28:52;;;;;;;12.75;10.18;;;;;;;13.30;100.00;99571.53;6287566;28;20040;-83
2021/08/29 02:31:53;;;;;;;14.35;10.52;;;;;;;13.23;100.00;99565.09;6320951;28;20036;-84
2021/08/29 02:34:55;;;;;;;12.50;10.52;;;;;;;13.19;100.00;99563.69;6287474;28;20070;-79
2021/08/29 02:37:56;;;;;;;13.25;10.38;;;;;;;13.17;100.00;99562.97;6303321;28;20071;-79
2021/08/29 02:40:58;;;;;;;13.30;10.68;;;;;;;13.20;100.00;99560.94;6303660;28;20052;-80
2021/08/29 02:44:00;;;;;;;15.02;10.65;;;;;;;13.19;100.00;99558.44;6303730;28;20048;-79
2021/08/29 02:47:01;;;;;;;14.73;11.18;;;;;;;13.13;100.00;99551.06;6303646;28;20040;-79
2021/08/29 02:50:03;;;;;;;18.98;11.73;;;;;;;13.09;100.00;99542.63;6303723;28;20059;-79
2021/08/29 02:53:04;;;;;;;15.82;11.57;;;;;;;13.09;100.00;99553.09;6303450;28;20096;-79
2021/08/29 02:56:07;;;;;;;14.00;10.52;;;;;;;12.96;100.00;99549.81;6320360;28;20447;-79
2021/08/29 02:59:08;;;;;;;15.55;11.70;;;;;;;12.96;100.00;99552.41;6303495;28;20055;-79
2021/08/29 03:02:11;;;;;;;12.43;10.87;;;;;;;12.93;100.00;99544.78;6286571;28;20044;-79
2021/08/29 03:05:12;;;;;;;13.38;10.27;;;;;;;12.86;100.00;99542.66;6303264;28;20241;-79
2021/08/29 03:08:13;;;;;;;14.33;10.90;;;;;;;12.77;100.00;99548.63;6303064;28;20475;-79
2021/08/29 03:11:14;;;;;;;16.20;10.18;;;;;;;12.74;100.00;99553.25;6303029;28;20064;-79
2021/08/29 03:14:15;;;;;;;15.93;10.35;;;;;;;12.72;100.00;99548.13;6303032;28;20048;-79
2021/08/29 03:17:16;;;;;;;10.75;9.30;;;;;;;12.69;100.00;99543.97;6319794;28;20041;-79
2021/08/29 03:20:17;;;;;;;12.67;10.03;;;;;;;12.72;100.00;99550.75;6302998;28;20065;-80
2021/08/29 03:23:18;;;;;;;12.38;9.48;;;;;;;12.67;100.00;99542.44;6302735;28;20456;-79
2021/08/29 03:26:19;;;;;;;13.30;9.32;;;;;;;12.66;100.00;99540.75;6320877;28;20040;-79
2021/08/29 03:29:21;;;;;;;12.77;9.48;;;;;;;12.60;100.00;99547.34;6272786;28;20044;-80
2021/08/29 03:32:24;;;;;;;11.52;9.05;;;;;;;12.59;100.00;99542.22;6294441;28;20041;-79
2021/08/29 03:35:26;;;;;;;12.02;9.18;;;;;;;12.63;100.00;99544.47;6295590;28;20502;-79
2021/08/29 03:38:28;;;;;;;10.57;8.63;;;;;;;12.63;100.00;99541.03;6269346;28;20415;-83
2021/08/29 03:41:31;;;;;;;12.18;9.07;;;;;;;12.64;100.00;99538.28;6269439;28;20040;-83
2021/08/29 03:44:32;;;;;;;13.02;8.85;;;;;;;12.65;100.00;99545.19;6252858;28;20068;-83
2021/08/29 03:47:34;;;;;;;12.23;9.02;;;;;;;12.62;100.00;99534.97;6268598;28;20446;-83
2021/08/29 03:50:35;;;;;;;11.10;9.32;;;;;;;12.61;100.00;99532.44;6252928;28;20424;-83
2021/08/29 03:53:38;;;;;;;11.27;9.38;;;;;;;12.63;100.00;99528.75;6269221;28;20411;-83
2021/08/29 03:56:39;;;;;;;10.90;8.98;;;;;;;12.64;100.00;99529.59;6252920;28;20041;-83
2021/08/29 03:59:41;;;;;;;11.43;8.77;;;;;;;12.60;100.00;99531.63;6270505;28;20476;-83
2021/08/29 04:02:42;;;;;;;11.40;8.82;;;;;;;12.53;100.00;99533.03;6269217;28;20107;-83
2021/08/29 04:05:43;;;;;;;11.90;8.98;;;;;;;12.58;100.00;99519.59;6236288;28;20491;-84
2021/08/29 04:08:47;;;;;;;11.10;8.40;;;;;;;12.65;100.00;99520.78;6269026;28;20048;-83
2021/08/29 04:11:49;;;;;;;13.18;8.98;;;;;;;12.73;100.00;99530.66;6270185;28;20048;-83
2021/08/29 04:14:50;;;;;;;12.90;8.98;;;;;;;12.85;100.00;99538.38;6236334;28;20122;-83
2021/08/29 04:17:51;;;;;;;10.63;8.10;;;;;;;12.91;100.00;99544.94;6252591;28;20523;-83
2021/08/29 04:20:52;;;;;;;11.32;8.00;;;;;;;12.92;100.00;99530.06;6252451;28;20064;-83
2021/08/29 04:23:53;;;;;;;10.10;8.15;;;;;;;12.93;100.00;99532.56;6252368;28;20499;-83
2021/08/29 04:26:54;;;;;;;26.53;21.10;;;;;;;12.85;100.00;99538.38;6252339;28;20056;-83
2021/08/29 04:29:55;;;;;;;21.60;18.15;;;;;;;12.75;100.00;99532.22;6268871;28;20037;-83
2021/08/29 04:32:56;;;;;;;17.88;13.55;;;;;;;12.76;100.00;99527.81;6252207;28;20052;-83
2021/08/29 04:35:57;;;;;;;11.18;9.65;;;;;;;12.79;100.00;99527.56;6268864;28;20403;-83
2021/08/29 04:38:59;;;;;;;14.32;8.25;;;;;;;12.81;100.00;99521.25;6235642;28;20060;-83
2021/08/29 04:41:59;;;;;;;12.38;9.27;;;;;;;12.84;100.00;99512.31;6252114;28;20041;-83
2021/08/29 04:45:00;;;;;;;9.70;8.27;;;;;;;12.78;100.00;99502.34;6251975;28;20537;-83
2021/08/29 04:48:01;;;;;;;11.48;9.13;;;;;;;12.75;100.00;99513.06;6235656;28;20094;-83
2021/08/29 04:51:01;;;;;;;10.20;8.35;;;;;;;12.77;100.00;99516.38;6235487;28;20065;-83
2021/08/29 04:54:02;;;;;;;14.23;8.82;;;;;;;12.74;100.00;99508.75;6268548;28;20044;-83
2021/08/29 04:57:03;;;;;;;9.23;8.20;;;;;;;12.72;100.00;99511.50;6252122;28;20041;-83
2021/08/29 05:00:05;;;;;;;12.95;9.70;;;;;;;12.65;100.00;99498.06;6238354;28;20461;-83
2021/08/29 05:03:07;;;;;;;11.10;9.27;;;;;;;12.67;100.00;99493.53;6272975;28;20052;-83
2021/08/29 05:06:08;;;;;;;12.55;8.82;;;;;;;12.70;100.00;99498.56;6256637;28;20045;-83
2021/08/29 05:09:08;;;;;;;13.68;8.75;;;;;;;12.73;100.00;99497.47;6289506;28;20098;-83
2021/08/29 05:12:09;;;;;;;13.88;9.38;;;;;;;12.75;100.00;99499.97;6273144;28;20037;-83
2021/08/29 05:15:10;;;;;;;12.95;9.10;;;;;;;12.77;100.00;99500.69;6239848;28;20045;-83
2021/08/29 05:18:11;;;;;;;12.32;9.10;;;;;;;12.80;100.00;99497.81;6256259;28;20399;-82
2021/08/29 05:21:12;;;;;;;13.77;8.38;;;;;;;12.82;100.00;99501.13;6272662;28;20491;-83
2021/08/29 05:24:12;;;;;;;13.68;9.68;;;;;;;12.83;100.00;99495.78;6289175;28;20037;-83
2021/08/29 05:27:13;;;;;;;16.13;8.90;;;;;;;12.89;100.00;99490.06;6273213;28;20041;-83
2021/08/29 05:30:14;;;;;;;13.07;8.32;;;;;;;12.89;100.00;99500.53;6258146;28;20123;-83
2021/08/29 05:33:15;;;;;;;10.80;8.55;;;;;;;12.96;100.00;99505.28;6257913;28;20049;-83
2021/08/29 05:36:15;;;;;;;13.82;8.77;;;;;;;13.03;100.00;99507.31;6257805;28;20381;-83
2021/08/29 05:39:16;;;;;;;10.60;8.20;;;;;;;13.05;100.00;99510.63;6274171;28;20049;-82
2021/08/29 05:42:17;;;;;;;14.75;8.27;;;;;;;13.08;100.00;99514.78;6272523;28;20044;-80
2021/08/29 05:45:18;;;;;;;10.80;8.32;;;;;;;13.09;100.00;99504.19;6239547;28;20476;-80
2021/08/29 05:48:19;;;;;;;12.43;8.25;;;;;;;13.11;100.00;99504.03;6290402;28;20041;-80
2021/08/29 05:51:20;;;;;;;14.43;9.35;;;;;;;13.14;100.00;99510.81;6272428;28;20037;-79
2021/08/29 05:54:21;;;;;;;14.40;8.67;;;;;;;13.09;100.00;99516.44;6272176;28;20064;-79
2021/08/29 05:57:21;;;;;;;17.20;8.95;;;;;;;13.13;100.00;99511.78;6272450;28;20788;-80
2021/08/29 06:00:22;;;;;;;14.18;8.50;;;;;;;13.20;100.00;99500.69;6256138;28;20499;-80
2021/08/29 06:03:23;;;;;;;9.57;8.13;;;;;;;13.33;100.00;99504.97;6271794;28;20048;-80
2021/08/29 06:06:24;;;;;;;11.77;7.85;;;;;;;13.46;100.00;99501.22;6256112;28;20040;-80
2021/08/29 06:09:24;;;;;;;9.93;8.05;;;;;;;13.63;100.00;99499.84;6271691;28;20472;-80
2021/08/29 06:12:25;;;;;;;11.27;7.60;;;;;;;13.72;100.00;99500.06;6237882;28;20037;-79
2021/08/29 06:15:26;;;;;;;10.73;7.38;;;;;;;13.89;100.00;99502.91;6272940;28;20049;-80
2021/08/29 06:18:27;;;;;;;8.95;7.05;;;;;;;14.00;100.00;99495.94;6303546;28;20040;-79
2021/08/29 06:21:27;;;;;;;11.00;7.47;;;;;;;14.13;100.00;99503.63;6263377;28;20055;-80
2021/08/29 06:24:28;;;;;;;8.68;6.47;;;;;;;14.34;100.00;99507.03;6265961;28;20066;-79
2021/08/29 06:27:29;;;;;;;12.73;7.43;;;;;;;14.41;100.00;99505.56;6274829;28;20406;-79
2021/08/29 06:30:30;;;;;;;10.70;7.65;;;;;;;14.49;100.00;99504.88;6279281;28;20040;-79
2021/08/29 06:33:31;;;;;;;7.20;5.85;;;;;;;14.65;100.00;99493.94;6296982;28;20045;-79
2021/08/29 06:36:32;;;;;;;7.30;6.28;;;;;;;14.80;100.00;99491.75;6312704;28;20116;-80
2021/08/29 06:39:32;;;;;;;7.45;5.82;;;;;;;14.99;100.00;99498.84;6312303;28;20561;-79
2021/08/29 06:42:33;;;;;;;6.95;5.57;;;;;;;15.09;100.00;99500.53;6295615;28;20050;-79
2021/08/29 06:45:34;;;;;;;5.00;4.18;;;;;;;15.10;100.00;99498.75;6295501;28;20087;-80
2021/08/29 06:48:35;;;;;;;5.47;3.65;;;;;;;15.22;100.00;99497.66;6312243;28;20048;-80
2021/08/29 06:51:35;;;;;;;5.55;4.35;;;;;;;15.34;100.00;99503.63;6275592;28;20085;-80
2021/08/29 06:54:36;;;;;;;6.13;4.10;;;;;;;15.47;100.00;99501.53;6311171;28;20048;-80
2021/08/29 06:57:37;;;;;;;5.75;4.00;;;;;;;15.65;99.71;99500.84;6287273;28;20465;-80
2021/08/29 07:00:38;;;;;;;3.85;3.08;;;;;;;15.75;97.78;99506.09;6278507;28;20040;-80
2021/08/29 07:03:39;;;;;;;4.30;3.20;;;;;;;15.87;96.52;99512.88;6294949;28;20044;-81
2021/08/29 07:06:40;;;;;;;4.65;3.33;;;;;;;16.02;93.79;99506.22;6278430;28;20116;-81
2021/08/29 07:09:41;;;;;;;5.38;3.25;;;;;;;16.06;94.31;99497.06;6296112;28;20394;-82
2021/08/29 07:12:47;;;;;;;5.65;3.30;;;;;;;16.20;94.42;99501.03;6311267;28;20116;-83
2021/08/29 07:15:48;;;;;;;3.35;2.88;;;;;;;16.25;89.37;99496.19;6311926;28;20037;-82
2021/08/29 07:18:48;;;;;;;4.18;2.88;;;;;;;16.30;84.68;99487.84;6295068;28;20494;-84
2021/08/29 07:21:49;;;;;;;6.97;3.13;;;;;;;16.39;90.49;99491.41;6294903;28;20047;-82
2021/08/29 07:24:50;;;;;;;4.70;3.25;;;;;;;16.49;90.27;99493.03;6294368;28;20047;-80
2021/08/29 07:27:50;;;;;;;7.95;3.28;;;;;;;16.66;87.54;99482.72;6277914;28;20037;-81
2021/08/29 07:30:51;;;;;;;4.47;2.97;;;;;;;16.85;89.65;99484.44;6294464;28;20045;-80
2021/08/29 07:33:53;;;;;;;8.77;3.28;;;;;;;16.96;85.58;99478.94;6295741;28;20044;-80
2021/08/29 07:36:54;;;;;;;;;;;;;;;17.05;84.30;99474.59;6295949;28;20040;-83
2021/08/29 07:39:55;;;;;;;4.00;2.90;;;;;;;17.08;80.53;99463.75;6317663;28;20232;-81
2021/08/29 07:42:56;;;;;;;4.00;3.58;;;;;;;17.18;84.49;99458.41;6269347;28;20474;-81
2021/08/29 07:45:56;;;;;;;5.63;3.13;;;;;;;17.28;80.33;99459.16;6286197;28;20078;-84
2021/08/29 07:48:57;;;;;;;4.93;3.10;;;;;;;17.50;83.34;99458.72;6286127;28;20036;-84
2021/08/29 07:51:58;;;;;;;5.25;3.25;;;;;;;17.51;78.92;99459.53;6302510;28;20036;-81
2021/08/29 07:54:59;;;;;;;6.40;3.28;;;;;;;17.45;77.31;99449.59;6285799;28;20071;-81
2021/08/29 07:58:00;;;;;;;8.63;3.35;;;;;;;17.63;76.45;99449.56;6302522;28;20032;-84
2021/08/29 08:01:01;;;;;;;4.30;3.17;;;;;;;17.85;74.51;99454.38;6302657;28;20050;-83
2021/08/29 08:04:01;;;;;;;4.40;3.22;;;;;;;18.09;74.78;99463.41;6285884;28;20040;-84
2021/08/29 08:07:02;;;;;;;5.13;3.20;;;;;;;17.79;72.21;99462.88;6285854;28;20044;-82
2021/08/29 08:10:05;;;;;;;4.95;3.05;;;;;;;17.93;73.98;99458.84;6320469;28;20049;-83
2021/08/29 08:13:06;;;;;;;4.45;2.95;;;;;;;18.10;73.88;99463.25;6302851;28;20123;-83
2021/08/29 08:16:06;;;;;;;2.90;2.60;;;;;;;18.26;73.56;99459.03;6269206;28;20058;-82
2021/08/29 08:19:07;;;;;;;3.28;2.60;;;;;;;18.48;68.92;99460.31;6302423;28;20036;-82
2021/08/29 08:22:08;;;;;;;4.05;2.60;;;;;;;18.56;70.44;99457.69;6302323;28;20040;-83
2021/08/29 08:25:09;;;;;;;5.93;3.22;;;;;;;18.63;70.19;99453.41;6268874;28;20167;-83
2021/08/29 08:28:10;;;;;;;4.85;3.00;;;;;;;18.70;71.80;99456.25;6285691;28;20036;-83
2021/08/29 08:31:11;;;;;;;5.17;2.90;;;;;;;18.88;66.50;99457.00;6269016;28;20079;-83
2021/08/29 08:34:12;;;;;;;4.53;3.50;;;;;;;18.99;70.46;99462.97;6270438;28;20127;-81
2021/08/29 08:37:13;;;;;;;5.38;2.92;;;;;;;19.21;68.86;99454.41;6290132;28;20063;-83
2021/08/29 08:40:14;;;;;;;5.50;2.45;;;;;;;19.13;66.08;99449.94;6290052;28;20067;-80
2021/08/29 08:43:15;;;;;;;7.70;3.00;;;;;;;19.08;67.39;99448.78;6290015;28;20591;-81
2021/08/29 08:46:18;;;;;;;5.15;2.85;;;;;;;19.08;68.98;99449.59;6306801;28;20040;-83
2021/08/29 08:49:20;;;;;;;4.40;2.53;;;;;;;19.40;70.09;99457.75;6306827;28;20043;-84
2021/08/29 08:52:24;;;;;;;5.07;2.45;;;;;;;19.06;64.83;99443.63;6306440;28;20044;-81
2021/08/29 08:55:25;;;;;;;7.03;2.25;;;;;;;18.90;69.66;99443.59;6306390;28;20044;-83
2021/08/29 08:58:28;;;;;;;5.43;2.38;;;;;;;19.09;69.44;99435.38;6273425;28;20040;-82
2021/08/29 09:01:29;;;;;;;3.20;2.15;;;;;;;19.52;68.83;99445.84;6306284;28;20040;-82
2021/08/29 09:04:29;;;;;;;3.03;1.90;;;;;;;19.72;63.74;99448.97;6306175;28;20047;-83
2021/08/29 09:07:31;;;;;;;2.30;2.10;;;;;;;19.18;69.31;99443.34;6306248;28;20043;-82
2021/08/29 09:10:32;;;;;;;5.77;2.10;;;;;;;18.67;69.93;99440.72;6289675;28;20662;-83
2021/08/29 09:13:48;;;;;;;3.22;2.17;;;;;;;18.13;73.71;99452.38;6324284;28;20490;-83
2021/08/29 09:16:51;;;;;;;2.42;2.13;;;;;;;18.91;70.30;99447.91;6306271;28;20050;-85
2021/08/29 09:20:14;;;;;;;3.10;1.90;;;;;;;19.50;64.87;99445.16;6289579;28;20406;-81
2021/08/29 09:23:19;;;;;;;2.92;1.73;;;;;;;19.84;62.46;99441.50;6305716;28;20040;-82
2021/08/29 09:26:22;;;;;;;3.13;1.95;;;;;;;20.35;61.98;99441.22;6289629;28;20097;-81
2021/08/29 09:29:24;;;;;;;2.30;2.03;;;;;;;20.56;60.32;99417.59;6305551;28;20039;-82
2021/08/29 09:32:24;;;;;;;3.03;1.33;;;;;;;21.06;58.37;99412.84;6272561;28;20081;-82
2021/08/29 09:35:28;;;;;;;1.70;1.50;;;;;;;21.12;57.02;99412.13;6272532;28;20482;-82
2021/08/29 09:38:40;;;;;;;2.63;2.03;;;;;;;21.37;56.88;99418.06;6305653;28;20177;-84
2021/08/29 09:41:42;;;;;;;1.92;1.65;;;;;;;21.63;53.62;99414.22;6305773;28;20091;-83
2021/08/29 09:44:43;;;;;;;2.58;1.35;;;;;;;21.66;54.85;99427.97;6305578;28;20070;-83
2021/08/29 09:47:44;;;;;;;5.53;1.73;;;;;;;21.11;59.42;99421.91;6288020;28;20119;-84
2021/08/29 09:50:46;;;;;;;2.97;1.50;;;;;;;21.29;57.91;99423.44;6305451;28;20048;-80
2021/08/29 09:53:47;;;;;;;1.95;1.58;;;;;;;21.74;57.03;99413.78;6288701;28;20497;-82
2021/08/29 09:56:50;;;;;;;3.70;1.53;;;;;;;21.76;55.95;99416.25;6288440;28;20040;-82
2021/08/29 09:59:52;;;;;;;3.30;1.70;;;;;;;21.53;54.07;99425.91;6272273;28;20126;-82
2021/08/29 10:03:06;;;;;;;2.55;1.80;;;;;;;20.52;60.67;99424.22;6271730;28;20036;-79
2021/08/29 10:06:26;;;;;;;2.42;1.50;;;;;;;19.88;62.02;99425.13;6305116;28;20075;-84
2021/08/29 10:09:27;;;;;;;1.83;1.50;;;;;;;19.80;62.26;99421.66;6304772;28;20048;-83
2021/08/29 10:12:29;;;;;;;2.07;1.63;;;;;;;19.98;60.60;99424.13;6288623;28;20047;-84
2021/08/29 10:15:33;;;;;;;3.17;1.40;;;;;;;21.10;58.59;99417.59;6288667;28;20048;-85
2021/08/29 10:18:42;;;;;;;1.67;1.40;;;;;;;21.19;58.98;99428.16;6305123;28;20051;-83
2021/08/29 10:21:43;;;;;;;1.67;1.30;;;;;;;21.20;55.04;99425.31;6322734;28;20408;-83
2021/08/29 10:24:46;;;;;;;3.38;1.15;;;;;;;21.37;56.02;99422.53;6287884;28;20080;-81
2021/08/29 10:27:59;;;;;;;2.03;1.20;;;;;;;21.14;56.25;99416.25;6287472;28;20097;-82
2021/08/29 10:31:04;;;;;;;2.25;1.00;;;;;;;20.69;55.79;99415.25;6304029;28;20036;-82
2021/08/29 10:34:06;;;;;;;2.92;1.02;;;;;;;21.35;54.96;99420.06;6303989;28;20052;-82
2021/08/29 10:37:09;;;;;;;3.47;1.17;;;;;;;22.10;52.34;99413.88;6303881;28;20044;-81
2021/08/29 10:40:12;;;;;;;2.40;1.10;;;;;;;21.28;55.83;99413.84;6303724;28;20123;-84
2021/08/29 10:43:15;;;;;;;1.17;0.90;;;;;;;20.76;55.94;99419.84;6321873;28;20085;-85
2021/08/29 10:46:16;;;;;;;1.30;1.10;;;;;;;20.49;54.96;99421.94;6303692;28;20040;-83
2021/08/29 10:49:19;;;;;;;1.35;1.10;;;;;;;20.25;57.15;99422.88;6288120;28;20024;-83
2021/08/29 10:52:22;;;;;;;1.05;0.90;;;;;;;19.91;58.21;99413.34;6304860;28;20482;-85
2021/08/29 10:55:29;;;;;;;1.95;0.98;;;;;;;19.65;60.25;99418.84;6288463;28;20101;-86
2021/08/29 10:58:31;;;;;;;2.25;1.10;;;;;;;19.74;63.21;99409.94;6304210;28;20032;-85
2021/08/29 11:01:40;;;;;;;1.20;1.10;;;;;;;19.65;61.28;99414.38;6287510;28;20040;-86
2021/08/29 11:04:41;;;;;;;5.03;1.00;;;;;;;19.73;63.08;99413.59;6287276;28;20089;-89
2021/08/29 11:07:49;;;;;;;1.27;1.10;;;;;;;19.78;59.28;99405.94;6286859;28;20060;-83
2021/08/29 11:11:08;;;;;;;2.63;1.20;;;;;;;19.79;61.72;99406.75;6303731;28;20040;-84
2021/08/29 11:14:37;;;;;;;2.60;0.85;;;;;;;19.71;60.68;99408.44;6287351;28;20040;-84
2021/08/29 11:17:38;;;;;;;4.15;1.20;;;;;;;19.93;62.82;99409.56;6321648;28;20060;-84
2021/08/29 11:20:57;;;;;;;3.03;0.75;;;;;;;19.96;57.70;99405.75;6287282;28;20049;-84
2021/08/29 11:23:57;;;;;;;0.88;0.85;;;;;;;19.80;58.71;99406.59;6302933;28;20158;-84
2021/08/29 11:26:58;;;;;;;1.03;0.60;;;;;;;19.78;60.41;99416.53;6288224;28;20229;-92
2021/08/29 11:30:00;;;;;;;0.77;0.70;;;;;;;19.71;62.12;99415.56;6303328;28;20490;-84
2021/08/29 11:33:04;;;;;;;0.82;0.80;;;;;;;19.72;62.84;99414.56;6288178;28;20113;-84
2021/08/29 11:36:05;;;;;;;0.75;0.60;;;;;;;19.76;63.08;99425.66;6303508;28;20237;-81
2021/08/29 11:39:32;;;;;;;0.77;0.70;;;;;;;19.87;61.09;99423.47;6278125;28;20048;-83
2021/08/29 11:42:34;;;;;;;4.40;0.90;;;;;;;20.06;59.96;99418.81;6311634;28;20059;-84
2021/08/29 11:45:35;;;;;;;0.75;0.75;;;;;;;21.16;55.16;99420.56;6278575;28;20390;-84
2021/08/29 11:48:47;;;;;;;0.98;0.82;;;;;;;21.09;58.38;99417.81;6278423;28;20376;-84
2021/08/29 11:51:49;;;;;;;;;;;;;;;20.64;55.26;99411.47;6295450;28;20037;-82
2021/08/29 11:55:06;;;;;;;1.30;0.90;;;;;;;20.23;58.34;99406.31;6295231;28;20015;-83
2021/08/29 11:58:20;;;;;;;1.70;0.90;;;;;;;19.91;61.77;99416.00;6294339;28;20045;-83
2021/08/29 12:01:21;;;;;;;1.20;0.80;;;;;;;19.69;63.36;99405.13;6294303;28;20045;-81
2021/08/29 12:04:22;;;;;;;1.95;0.90;;;;;;;19.60;62.46;99405.28;6268705;28;20068;-81
2021/08/29 12:07:23;;;;;;;1.00;0.90;;;;;;;19.43;64.08;99407.13;6264258;28;20472;-83
2021/08/29 12:10:25;;;;;;;2.23;1.30;;;;;;;19.43;64.62;99412.41;6274897;28;20051;-81
2021/08/29 12:13:30;;;;;;;1.50;0.98;;;;;;;19.34;65.55;99411.59;6293895;28;20056;-81
2021/08/29 12:16:31;;;;;;;1.02;0.85;;;;;;;19.39;66.15;99411.09;6274511;28;20064;-82
2021/08/29 12:19:34;;;;;;;0.90;0.90;;;;;;;19.35;65.12;99407.94;6236518;28;20048;-82
2021/08/29 12:22:36;;;;;;;1.08;0.90;;;;;;;19.41;65.62;99406.47;6270014;28;20045;-83
2021/08/29 12:25:37;;;;;;;1.02;0.90;;;;;;;19.49;68.43;99406.47;6268807;28;20044;-84
2021/08/29 12:28:38;;;;;;;1.63;1.17;;;;;;;19.42;65.43;99405.50;6250195;28;20045;-82
2021/08/29 12:31:40;;;;;;;1.48;1.10;;;;;;;19.39;62.65;99416.38;6251758;28;20060;-84
2021/08/29 12:34:42;;;;;;;1.83;1.10;;;;;;;19.52;64.34;99406.97;6251959;28;20049;-84
2021/08/29 12:37:46;;;;;;;1.15;1.05;;;;;;;19.67;68.30;99408.94;6270177;28;20128;-84
2021/08/29 12:40:47;;;;;;;1.55;1.05;;;;;;;19.83;72.73;99405.44;6276870;28;20090;-84
2021/08/29 12:43:48;;;;;;;1.90;0.90;;;;;;;19.82;63.65;99409.91;6276704;28;20106;-83
2021/08/29 12:46:49;;;;;;;1.20;0.90;;;;;;;19.81;59.16;99412.72;6244114;28;20501;-83
2021/08/29 12:49:50;;;;;;;5.93;1.20;;;;;;;19.90;63.35;99417.84;6243829;28;20052;-84
2021/08/29 12:53:00;;;;;;;1.70;1.10;;;;;;;20.06;69.33;99411.69;6260220;28;20082;-84
2021/08/29 12:56:01;;;;;;;1.45;1.17;;;;;;;20.06;67.00;99406.38;6294482;28;20036;-83
2021/08/29 12:59:02;;;;;;;6.73;1.20;;;;;;;20.05;63.23;99402.06;6259978;28;20037;-84
2021/08/29 13:02:03;;;;;;;2.00;1.00;;;;;;;19.98;59.64;99395.81;6260087;28;20222;-83
2021/08/29 13:05:04;;;;;;;3.08;0.88;;;;;;;19.86;62.05;99395.34;6226975;28;20601;-83
2021/08/29 13:08:06;;;;;;;;;;;;;;;19.97;62.83;99390.69;6243892;28;20102;-83
2021/08/29 13:11:10;;;;;;;1.63;1.10;;;;;;;20.12;61.65;99389.81;6276527;28;19920;-84
2021/08/29 13:14:11;;;;;;;1.05;0.93;;;;;;;20.03;63.90;99387.34;6276449;28;20045;-84
2021/08/29 13:17:15;;;;;;;1.20;1.10;;;;;;;20.08;62.96;99390.31;6276555;28;20064;-83
2021/08/29 13:20:16;;;;;;;2.88;1.00;;;;;;;20.10;60.97;99375.91;6295368;28;20572;-83
2021/08/29 13:23:34;;;;;;;1.50;1.20;;;;;;;20.18;59.27;99366.25;6297349;28;20044;-83
2021/08/29 13:26:34;;;;;;;1.30;0.95;;;;;;;20.19;59.85;99363.44;6280731;28;20037;-90
2021/08/29 13:29:40;;;;;;;3.57;1.20;;;;;;;20.32;60.47;99363.75;6248850;28;20145;-91
2021/08/29 13:32:42;;;;;;;2.38;1.08;;;;;;;20.31;61.41;99364.72;6265622;28;20167;-91
2021/08/29 13:35:43;;;;;;;2.22;1.20;;;;;;;20.22;59.37;99370.22;6264901;28;20059;-90
2021/08/29 13:38:46;;;;;;;3.55;1.30;;;;;;;20.35;61.07;99364.38;6272702;28;20103;-91
2021/08/29 13:41:47;;;;;;;1.58;1.20;;;;;;;20.43;66.33;99354.56;6255577;28;20122;-83
2021/08/29 13:44:53;;;;;;;7.40;1.20;;;;;;;20.42;59.73;99357.38;6238980;28;20484;-84
2021/08/29 13:47:55;;;;;;;2.03;1.27;;;;;;;20.42;58.97;99355.56;6271965;28;20044;-83
2021/08/29 13:50:58;;;;;;;1.52;1.17;;;;;;;20.52;60.18;99352.69;6272103;28;20127;-83
2021/08/29 13:53:59;;;;;;;1.42;1.00;;;;;;;20.46;59.58;99342.78;6271483;28;20102;-83
2021/08/29 13:57:00;;;;;;;1.23;1.00;;;;;;;20.44;59.54;99342.13;6255216;28;20454;-82
2021/08/29 14:00:01;;;;;;;1.27;0.93;;;;;;;20.47;59.17;99331.19;6238908;28;20060;-91
2021/08/29 14:03:02;;;;;;;2.53;0.90;;;;;;;20.44;59.10;99335.00;6272218;28;20068;-91
2021/08/29 14:06:03;;;;;;;0.93;0.87;;;;;;;20.58;63.03;99337.91;6256086;28;20389;-91
2021/08/29 14:09:03;;;;;;;2.10;1.10;;;;;;;20.45;59.22;99323.41;6272064;28;20164;-91